createdAt,value
2023-04-25T00:02:13.740Z,99.90
2023-04-25T00:04:41.121Z,99.90
2023-04-25T00:07:08.466Z,99.90
2023-04-25T00:09:35.334Z,99.90
2023-04-25T00:12:02.616Z,99.90
2023-04-25T00:14:30.724Z,99.90
2023-04-25T00:16:57.500Z,99.90
2023-04-25T00:19:24.539Z,99.90
2023-04-25T00:21:51.567Z,99.90
2023-04-25T00:24:18.317Z,99.90
2023-04-25T00:26:45.289Z,99.90
2023-04-25T00:29:12.054Z,99.90
2023-04-25T00:31:38.924Z,99.90
2023-04-25T00:34:07.125Z,99.90
2023-04-25T00:36:34.199Z,99.90
2023-04-25T00:39:00.992Z,99.90
2023-04-25T00:41:28.274Z,99.90
2023-04-25T00:43:57.106Z,99.90
2023-04-25T00:46:23.822Z,99.90
2023-04-25T00:48:50.515Z,99.90
2023-04-25T00:51:21.248Z,99.90
2023-04-25T00:53:50.036Z,99.90
2023-04-25T00:56:17.749Z,99.90
2023-04-25T00:58:44.611Z,99.90
2023-04-25T01:01:13.001Z,99.90
2023-04-25T01:03:44.070Z,99.90
2023-04-25T01:06:11.894Z,99.90
2023-04-25T01:08:39.943Z,99.90
2023-04-25T01:11:07.258Z,99.90
2023-04-25T01:13:34.558Z,99.90
2023-04-25T01:16:03.255Z,99.90
2023-04-25T01:18:30.606Z,99.90
2023-04-25T01:20:58.916Z,99.90
2023-04-25T01:23:26.355Z,99.90
2023-04-25T01:25:53.831Z,99.90
2023-04-25T01:28:20.977Z,99.90
2023-04-25T01:30:48.206Z,99.90
2023-04-25T01:33:16.416Z,99.90
2023-04-25T01:35:43.483Z,99.90
2023-04-25T01:38:10.738Z,99.90
2023-04-25T01:40:41.444Z,99.90
2023-04-25T01:43:12.241Z,99.90
2023-04-25T01:45:43.039Z,99.90
2023-04-25T01:48:10.917Z,99.90
2023-04-25T01:50:39.196Z,99.90
2023-04-25T01:53:06.726Z,99.90
2023-04-25T01:55:33.427Z,99.90
2023-04-25T01:58:01.830Z,99.90
2023-04-25T02:00:28.600Z,99.90
2023-04-25T02:02:58.622Z,99.90
2023-04-25T02:05:25.644Z,99.90
2023-04-25T02:07:52.637Z,99.90
2023-04-25T02:10:19.341Z,99.90
2023-04-25T02:12:47.352Z,99.90
2023-04-25T02:15:14.413Z,99.90
2023-04-25T02:17:41.156Z,99.90
2023-04-25T02:20:08.345Z,99.90
2023-04-25T02:22:36.618Z,99.90
2023-04-25T02:25:05.805Z,99.90
2023-04-25T02:27:32.609Z,99.90
2023-04-25T02:29:59.328Z,99.90
2023-04-25T02:32:26.573Z,99.90
2023-04-25T02:34:54.048Z,99.90
2023-04-25T02:37:20.807Z,99.90
2023-04-25T02:39:47.798Z,99.90
2023-04-25T02:42:14.458Z,99.90
2023-04-25T02:44:41.150Z,99.90
2023-04-25T02:47:08.219Z,99.90
2023-04-25T02:49:34.997Z,99.90
2023-04-25T02:52:02.063Z,99.90
2023-04-25T02:54:29.024Z,99.90
2023-04-25T02:56:55.698Z,99.90
2023-04-25T02:59:22.657Z,99.90
2023-04-25T03:01:49.417Z,99.90
2023-04-25T03:04:16.657Z,99.90
2023-04-25T03:06:43.379Z,99.90
2023-04-25T03:09:10.542Z,99.90
2023-04-25T03:11:39.425Z,99.90
2023-04-25T03:14:06.428Z,99.90
2023-04-25T03:16:33.563Z,99.90
2023-04-25T03:19:00.385Z,99.90
2023-04-25T03:21:27.742Z,99.90
2023-04-25T03:23:54.713Z,99.90
2023-04-25T03:26:21.627Z,99.90
2023-04-25T03:28:48.324Z,99.90
2023-04-25T03:31:15.062Z,99.90
2023-04-25T03:33:42.059Z,99.90
2023-04-25T03:36:09.396Z,99.90
2023-04-25T03:38:36.624Z,99.90
2023-04-25T03:41:03.855Z,99.90
2023-04-25T03:43:30.836Z,99.90
2023-04-25T03:45:57.735Z,99.90
2023-04-25T03:48:26.040Z,99.90
2023-04-25T03:50:53.503Z,99.90
2023-04-25T03:53:20.582Z,99.90
2023-04-25T03:55:47.782Z,99.90
2023-04-25T03:58:14.995Z,99.90
2023-04-25T04:00:41.724Z,99.90
2023-04-25T04:03:08.934Z,99.90
2023-04-25T04:05:35.850Z,99.90
2023-04-25T04:08:02.556Z,99.90
2023-04-25T04:10:29.864Z,99.90
2023-04-25T04:12:56.670Z,99.90
2023-04-25T04:15:23.892Z,99.90
2023-04-25T04:17:50.794Z,99.90
2023-04-25T04:20:18.013Z,99.90
2023-04-25T04:22:44.753Z,99.90
2023-04-25T04:25:12.701Z,99.90
2023-04-25T04:27:40.604Z,99.90
2023-04-25T04:32:57.782Z,99.90
2023-04-25T04:35:24.784Z,99.90
2023-04-25T04:37:52.080Z,99.90
2023-04-25T04:40:19.540Z,99.90
2023-04-25T04:42:46.634Z,99.90
2023-04-25T04:45:14.415Z,99.90
2023-04-25T04:47:41.663Z,99.90
2023-04-25T04:50:10.388Z,99.90
2023-04-25T04:52:38.780Z,99.90
2023-04-25T04:55:07.275Z,99.90
2023-04-25T04:57:34.109Z,99.90
2023-04-25T05:00:03.400Z,99.90
2023-04-25T05:02:30.710Z,99.90
2023-04-25T05:04:58.034Z,99.90
2023-04-25T05:07:25.522Z,99.90
2023-04-25T05:09:52.243Z,99.90
2023-04-25T05:12:18.995Z,99.90
2023-04-25T05:14:45.767Z,99.90
2023-04-25T05:17:13.153Z,99.90
2023-04-25T05:19:40.624Z,99.90
2023-04-25T05:22:07.363Z,99.90
2023-04-25T05:24:34.874Z,99.90
2023-04-25T05:27:02.122Z,99.90
2023-04-25T05:29:29.291Z,99.90
2023-04-25T05:31:56.020Z,99.90
2023-04-25T05:34:22.795Z,99.90
2023-04-25T05:36:50.486Z,99.90
2023-04-25T05:39:21.022Z,99.90
2023-04-25T05:41:47.751Z,99.90
2023-04-25T05:44:14.479Z,99.90
2023-04-25T05:46:41.871Z,99.90
2023-04-25T05:49:08.605Z,99.90
2023-04-25T05:51:35.354Z,99.90
2023-04-25T05:54:02.903Z,99.90
2023-04-25T05:56:29.589Z,99.90
2023-04-25T05:58:56.355Z,99.90
2023-04-25T06:01:24.760Z,99.90
2023-04-25T06:03:53.870Z,99.90
2023-04-25T06:06:22.195Z,99.90
2023-04-25T06:08:48.962Z,99.90
2023-04-25T06:11:17.494Z,99.90
2023-04-25T06:13:44.197Z,99.90
2023-04-25T06:16:11.769Z,99.90
2023-04-25T06:18:38.552Z,99.90
2023-04-25T06:21:05.520Z,99.90
2023-04-25T06:26:18.661Z,99.90
2023-04-25T06:28:45.495Z,99.90
2023-04-25T06:31:12.806Z,99.90
2023-04-25T06:33:40.023Z,99.90
2023-04-25T06:36:07.009Z,99.90
2023-04-25T06:38:35.149Z,99.90
2023-04-25T06:41:02.519Z,99.90
2023-04-25T06:43:30.190Z,99.90
2023-04-25T06:45:59.029Z,99.90
2023-04-25T06:48:26.381Z,99.90
2023-04-25T06:50:58.661Z,99.90
2023-04-25T06:53:43.923Z,99.90
2023-04-25T06:56:12.814Z,99.90
2023-04-25T06:58:41.231Z,99.90
2023-04-25T07:01:08.720Z,99.90
2023-04-25T07:03:35.902Z,99.90
2023-04-25T07:06:04.430Z,99.90
2023-04-25T07:08:31.147Z,99.90
2023-04-25T07:10:58.423Z,99.90
2023-04-25T07:13:25.202Z,99.90
2023-04-25T07:15:53.237Z,99.90
2023-04-25T07:18:20.401Z,99.90
2023-04-25T07:20:48.006Z,99.90
2023-04-25T07:23:14.750Z,99.90
2023-04-25T07:25:43.755Z,99.90
2023-04-25T07:28:10.465Z,99.90
2023-04-25T07:30:38.233Z,99.90
2023-04-25T07:33:05.453Z,99.90
2023-04-25T07:35:32.163Z,99.90
2023-04-25T07:38:00.714Z,99.90
2023-04-25T07:40:27.527Z,99.90
2023-04-25T07:42:58.339Z,99.90
2023-04-25T07:45:28.869Z,99.90
2023-04-25T07:47:55.771Z,99.90
2023-04-25T07:50:23.665Z,99.90
2023-04-25T07:52:50.496Z,99.90
2023-04-25T07:55:17.392Z,99.90
2023-04-25T07:57:45.596Z,99.90
2023-04-25T08:00:13.780Z,99.90
2023-04-25T08:02:40.743Z,99.90
2023-04-25T08:05:10.275Z,99.90
2023-04-25T08:07:37.790Z,99.90
2023-04-25T08:10:05.551Z,99.90
2023-04-25T08:12:32.311Z,99.90
2023-04-25T08:14:59.067Z,99.90
2023-04-25T08:17:26.580Z,99.90
2023-04-25T08:19:53.341Z,99.90
2023-04-25T08:22:20.794Z,99.90
2023-04-25T08:24:48.370Z,99.90
2023-04-25T08:27:15.142Z,99.90
2023-04-25T08:32:31.140Z,99.90
2023-04-25T08:37:45.808Z,99.90
2023-04-25T08:40:16.576Z,99.90
2023-04-25T08:42:43.979Z,99.90
2023-04-25T08:45:11.553Z,99.90
2023-04-25T08:47:39.869Z,99.90
2023-04-25T08:50:07.741Z,99.90
2023-04-25T08:52:47.025Z,99.90
2023-04-25T08:55:15.628Z,99.90
2023-04-25T08:57:46.774Z,99.90
2023-04-25T09:00:16.073Z,93.80
2023-04-25T09:02:45.072Z,88.90
2023-04-25T09:05:14.512Z,81.90
2023-04-25T09:07:41.622Z,69.50
2023-04-25T09:10:09.625Z,69.80
2023-04-25T09:12:37.057Z,60.60
2023-04-25T09:15:09.664Z,57.20
2023-04-25T09:17:41.129Z,55.40
2023-04-25T09:20:13.326Z,51.00
2023-04-25T09:22:40.406Z,51.50
2023-04-25T09:25:12.580Z,52.30
2023-04-25T09:27:52.585Z,57.20
2023-04-25T09:30:19.951Z,58.60
2023-04-25T09:32:46.688Z,60.80
2023-04-25T09:35:26.336Z,62.70
2023-04-25T09:37:53.104Z,62.10
2023-04-25T09:43:25.379Z,62.80
2023-04-25T09:45:57.506Z,66.60
2023-04-25T09:48:26.850Z,68.50
2023-04-25T09:54:08.038Z,61.20
2023-04-25T09:56:38.917Z,64.10
2023-04-25T09:59:06.858Z,66.20
2023-04-25T10:01:34.437Z,69.00
2023-04-25T10:04:02.817Z,71.80
2023-04-25T10:06:31.867Z,75.80
2023-04-25T10:08:59.229Z,79.40
2023-04-25T10:14:17.607Z,89.00
2023-04-25T10:16:44.660Z,85.50
2023-04-25T10:19:12.182Z,77.80
2023-04-25T10:21:49.433Z,71.00
2023-04-25T10:24:16.998Z,65.20
2023-04-25T10:26:44.883Z,54.90
2023-04-25T10:29:11.686Z,48.90
2023-04-25T10:31:48.648Z,46.60
2023-04-25T10:34:17.793Z,46.40
2023-04-25T10:36:49.861Z,44.20
2023-04-25T10:39:27.768Z,46.90
2023-04-25T10:42:00.965Z,46.10
2023-04-25T10:44:31.410Z,42.10
2023-04-25T10:47:59.111Z,42.50
2023-04-25T10:50:40.519Z,41.00
2023-04-25T10:56:19.119Z,51.50
2023-04-25T10:58:49.589Z,56.80
2023-04-25T11:01:26.312Z,58.30
2023-04-25T11:03:59.566Z,62.00
2023-04-25T11:06:32.706Z,60.10
2023-04-25T11:09:02.828Z,54.40
2023-04-25T11:14:14.446Z,44.30
2023-04-25T11:16:41.252Z,45.40
2023-04-25T11:19:08.448Z,49.70
2023-04-25T11:21:35.260Z,51.60
2023-04-25T11:24:03.304Z,50.30
2023-04-25T11:26:31.924Z,43.40
2023-04-25T11:29:02.886Z,41.40
2023-04-25T11:31:31.240Z,40.90
2023-04-25T11:33:58.932Z,40.10
2023-04-25T11:36:27.475Z,43.00
2023-04-25T11:38:55.020Z,46.30
2023-04-25T11:41:24.118Z,46.60
2023-04-25T11:43:53.281Z,43.70
2023-04-25T11:46:21.314Z,44.90
2023-04-25T11:48:49.891Z,41.40
2023-04-25T11:51:17.026Z,41.30
2023-04-25T11:53:45.869Z,43.00
2023-04-25T11:56:14.411Z,47.70
2023-04-25T11:58:58.103Z,51.60
2023-04-25T12:01:35.687Z,55.70
2023-04-25T12:04:23.652Z,52.70
2023-04-25T12:06:53.191Z,50.30
2023-04-25T12:09:24.864Z,44.80
2023-04-25T12:11:56.611Z,44.40
2023-04-25T12:14:36.801Z,42.60
2023-04-25T12:17:05.218Z,45.30
2023-04-25T12:19:37.353Z,48.70
2023-04-25T12:22:19.619Z,52.10
2023-04-25T12:24:46.500Z,54.50
2023-04-25T12:27:20.250Z,53.90
2023-04-25T12:29:55.669Z,52.10
2023-04-25T12:32:22.945Z,53.30
2023-04-25T12:34:49.860Z,52.60
2023-04-25T12:37:17.020Z,55.40
2023-04-25T12:39:43.818Z,57.70
2023-04-25T12:42:13.126Z,59.30
2023-04-25T12:44:40.666Z,61.00
2023-04-25T12:47:08.072Z,63.10
2023-04-25T12:49:34.919Z,65.70
2023-04-25T12:52:01.957Z,67.60
2023-04-25T12:54:28.984Z,68.80
2023-04-25T12:56:56.259Z,69.40
2023-04-25T12:59:22.988Z,65.50
2023-04-25T13:01:50.197Z,66.10
2023-04-25T13:04:17.711Z,67.30
2023-04-25T13:06:44.618Z,67.90
2023-04-25T13:09:13.813Z,67.90
2023-04-25T13:11:42.011Z,64.90
2023-04-25T13:14:08.891Z,59.40
2023-04-25T13:16:35.826Z,58.90
2023-04-25T13:19:02.721Z,59.80
2023-04-25T13:21:33.604Z,59.60
2023-04-25T13:24:00.452Z,63.00
2023-04-25T13:26:27.191Z,67.50
2023-04-25T13:28:54.312Z,70.00
2023-04-25T13:31:21.094Z,72.90
2023-04-25T13:33:48.218Z,75.00
2023-04-25T13:36:15.828Z,74.40
2023-04-25T13:38:44.974Z,76.00
2023-04-25T13:41:16.838Z,76.90
2023-04-25T13:43:43.599Z,76.40
2023-04-25T13:46:24.821Z,76.90
2023-04-25T13:49:06.272Z,76.60
2023-04-25T13:51:38.628Z,78.60
2023-04-25T13:54:05.718Z,76.60
2023-04-25T13:56:32.481Z,72.50
2023-04-25T13:58:59.468Z,74.20
2023-04-25T14:01:27.398Z,72.00
2023-04-25T14:03:54.411Z,68.80
2023-04-25T14:06:23.932Z,70.00
2023-04-25T14:08:51.786Z,71.40
2023-04-25T14:11:19.680Z,74.40
2023-04-25T14:13:47.006Z,75.40
2023-04-25T14:16:14.083Z,74.70
2023-04-25T14:18:40.883Z,77.20
2023-04-25T14:21:07.910Z,77.90
2023-04-25T14:23:34.615Z,76.20
2023-04-25T14:26:01.544Z,76.00
2023-04-25T14:28:28.551Z,75.30
2023-04-25T14:30:55.505Z,74.40
2023-04-25T14:33:23.071Z,72.50
2023-04-25T14:35:49.870Z,73.20
2023-04-25T14:38:16.909Z,73.20
2023-04-25T14:40:43.690Z,74.00
2023-04-25T14:43:10.597Z,76.10
2023-04-25T14:45:37.659Z,76.40
2023-04-25T14:48:04.807Z,76.60
2023-04-25T14:50:31.727Z,78.40
2023-04-25T14:53:00.214Z,77.40
2023-04-25T14:55:29.946Z,79.80
2023-04-25T14:57:57.643Z,79.30
2023-04-25T15:00:26.139Z,81.40
2023-04-25T15:02:53.639Z,79.60
2023-04-25T15:05:21.125Z,76.50
2023-04-25T15:07:48.869Z,77.00
2023-04-25T15:10:17.326Z,77.40
2023-04-25T15:12:46.906Z,77.40
2023-04-25T15:15:22.658Z,76.20
2023-04-25T15:17:52.739Z,76.50
2023-04-25T15:20:19.764Z,75.70
2023-04-25T15:22:47.212Z,76.50
2023-04-25T15:25:13.926Z,75.60
2023-04-25T15:27:43.067Z,72.60
2023-04-25T15:30:12.442Z,73.00
2023-04-25T15:32:39.648Z,73.40
2023-04-25T15:35:07.639Z,74.10
2023-04-25T15:37:36.175Z,73.20
2023-04-25T15:40:12.218Z,74.40
2023-04-25T15:42:40.562Z,76.10
2023-04-25T15:45:09.536Z,75.40
2023-04-25T15:47:38.128Z,73.80
2023-04-25T15:50:08.362Z,72.40
2023-04-25T15:52:37.055Z,72.90
2023-04-25T15:55:08.752Z,73.60
2023-04-25T15:57:36.994Z,74.40
2023-04-25T16:00:24.385Z,75.50
2023-04-25T16:02:51.710Z,75.70
2023-04-25T16:05:19.369Z,75.70
2023-04-25T16:07:46.897Z,75.30
2023-04-25T16:10:14.937Z,76.70
2023-04-25T16:12:42.102Z,76.50
2023-04-25T16:15:09.398Z,76.70
2023-04-25T16:17:36.429Z,76.50
2023-04-25T16:20:09.922Z,76.90
2023-04-25T16:22:38.620Z,77.40
2023-04-25T16:25:05.859Z,78.50
2023-04-25T16:27:34.954Z,80.00
2023-04-25T16:30:02.470Z,79.90
2023-04-25T16:32:29.303Z,80.00
2023-04-25T16:34:58.582Z,80.10
2023-04-25T16:37:25.779Z,80.30
2023-04-25T16:39:52.741Z,81.00
2023-04-25T16:42:19.609Z,81.90
2023-04-25T16:44:46.688Z,81.90
2023-04-25T16:47:17.313Z,79.80
2023-04-25T16:49:45.777Z,80.90
2023-04-25T16:52:12.941Z,83.30
2023-04-25T16:54:39.642Z,81.30
2023-04-25T16:57:12.574Z,82.00
2023-04-25T16:59:40.026Z,82.00
2023-04-25T17:02:10.380Z,80.90
2023-04-25T17:04:37.548Z,81.50
2023-04-25T17:07:04.641Z,81.50
2023-04-25T17:09:32.820Z,82.70
2023-04-25T17:12:00.003Z,83.80
2023-04-25T17:14:27.231Z,84.40
2023-04-25T17:16:54.138Z,83.70
2023-04-25T17:19:21.861Z,84.30
2023-04-25T17:21:48.627Z,83.30
2023-04-25T17:24:15.949Z,83.90
2023-04-25T17:26:42.743Z,85.60
2023-04-25T17:29:09.502Z,88.60
2023-04-25T17:31:36.715Z,89.70
2023-04-25T17:34:04.531Z,91.00
2023-04-25T17:36:31.505Z,91.70
2023-04-25T17:38:58.301Z,91.70
2023-04-25T17:41:25.364Z,91.70
2023-04-25T17:43:52.071Z,91.90
2023-04-25T17:46:19.157Z,92.20
2023-04-25T17:48:46.022Z,92.90
2023-04-25T17:51:12.796Z,92.10
2023-04-25T17:53:39.560Z,92.40
2023-04-25T17:56:16.177Z,92.20
2023-04-25T17:58:53.288Z,92.00
2023-04-25T18:01:20.854Z,91.60
2023-04-25T18:03:50.167Z,92.20
2023-04-25T18:06:18.105Z,92.50
2023-04-25T18:08:45.238Z,92.80
2023-04-25T18:11:12.505Z,92.40
2023-04-25T18:13:39.838Z,92.60
2023-04-25T18:16:07.451Z,92.60
2023-04-25T18:18:36.223Z,93.30
2023-04-25T18:21:05.301Z,93.70
2023-04-25T18:23:34.218Z,95.10
2023-04-25T18:26:02.361Z,95.00
2023-04-25T18:28:29.693Z,95.60
2023-04-25T18:30:56.898Z,94.90
2023-04-25T18:33:24.064Z,95.10
2023-04-25T18:35:58.194Z,95.50
2023-04-25T18:41:02.751Z,96.40
2023-04-25T18:43:33.057Z,96.40
2023-04-25T18:45:59.862Z,97.20
2023-04-25T18:48:26.786Z,98.00
2023-04-25T18:50:53.676Z,98.70
2023-04-25T18:53:20.351Z,99.70
2023-04-25T18:55:47.246Z,99.90
2023-04-25T18:58:14.250Z,99.90
2023-04-25T19:00:41.252Z,99.90
2023-04-25T19:03:08.414Z,99.90
2023-04-25T19:05:35.270Z,99.90
2023-04-25T19:08:01.945Z,99.90
2023-04-25T19:10:28.893Z,99.90
2023-04-25T19:12:56.069Z,99.90
2023-04-25T19:15:23.013Z,99.90
2023-04-25T19:17:50.040Z,99.90
2023-04-25T19:20:17.222Z,99.90
2023-04-25T19:22:43.916Z,99.90
2023-04-25T19:25:11.421Z,99.90
2023-04-25T19:27:39.415Z,99.90
2023-04-25T19:30:10.760Z,99.90
2023-04-25T19:32:39.211Z,99.90
2023-04-25T19:35:10.900Z,99.90
2023-04-25T19:37:39.393Z,99.90
2023-04-25T19:40:07.554Z,99.90
2023-04-25T19:42:34.261Z,99.90
2023-04-25T19:45:01.944Z,99.90
2023-04-25T19:47:28.787Z,99.90
2023-04-25T19:49:55.661Z,99.90
2023-04-25T19:52:22.767Z,99.90
2023-04-25T19:54:49.506Z,99.90
2023-04-25T19:57:16.556Z,99.90
2023-04-25T19:59:47.973Z,99.90
2023-04-25T20:02:15.166Z,99.90
2023-04-25T20:04:42.351Z,99.90
2023-04-25T20:07:09.063Z,99.90
2023-04-25T20:09:36.031Z,99.90
2023-04-25T20:12:04.244Z,99.90
2023-04-25T20:14:33.095Z,99.90
2023-04-25T20:17:00.028Z,99.90
2023-04-25T20:19:27.095Z,99.90
2023-04-25T20:21:53.989Z,99.90
2023-04-25T20:24:21.031Z,99.90
2023-04-25T20:26:47.780Z,99.90
2023-04-25T20:29:14.740Z,99.90
2023-04-25T20:31:42.792Z,99.90
2023-04-25T20:34:09.768Z,99.90
2023-04-25T20:36:36.776Z,99.90
2023-04-25T20:39:04.842Z,99.90
2023-04-25T20:41:31.815Z,99.90
2023-04-25T20:43:58.564Z,99.90
2023-04-25T20:46:25.656Z,99.90
2023-04-25T20:48:53.195Z,99.90
2023-04-25T20:51:20.945Z,99.90
2023-04-25T20:53:47.743Z,99.90
2023-04-25T20:56:14.769Z,99.90
2023-04-25T20:58:41.591Z,99.90
2023-04-25T21:01:09.325Z,99.90
2023-04-25T21:03:36.546Z,99.90
2023-04-25T21:06:03.748Z,99.90
2023-04-25T21:08:30.475Z,99.90
2023-04-25T21:10:57.498Z,99.90
2023-04-25T21:13:25.067Z,99.90
2023-04-25T21:15:52.045Z,99.90
2023-04-25T21:18:19.090Z,99.90
2023-04-25T21:20:46.649Z,99.90
2023-04-25T21:23:13.430Z,99.90
2023-04-25T21:25:40.271Z,99.90
2023-04-25T21:28:08.177Z,99.90
2023-04-25T21:30:35.199Z,99.90
2023-04-25T21:33:03.743Z,99.90
2023-04-25T21:35:30.589Z,99.90
2023-04-25T21:37:57.688Z,99.90
2023-04-25T21:40:24.529Z,99.90
2023-04-25T21:42:52.015Z,99.90
2023-04-25T21:45:19.956Z,99.90
2023-04-25T21:47:50.709Z,99.90
2023-04-25T21:50:18.138Z,99.90
2023-04-25T21:52:45.180Z,99.90
2023-04-25T21:55:11.988Z,99.90
2023-04-25T21:57:39.036Z,99.90
2023-04-25T22:00:20.952Z,99.90
2023-04-25T22:02:48.971Z,99.90
2023-04-25T22:05:16.204Z,99.90
2023-04-25T22:07:43.208Z,99.90
2023-04-25T22:10:10.505Z,99.90
2023-04-25T22:12:37.690Z,99.90
2023-04-25T22:15:04.696Z,99.90
2023-04-25T22:17:33.445Z,99.90
2023-04-25T22:20:00.914Z,99.90
2023-04-25T22:22:28.269Z,99.90
2023-04-25T22:24:55.210Z,99.90
2023-04-25T22:27:22.420Z,99.90
2023-04-25T22:29:49.389Z,99.90
2023-04-25T22:32:16.192Z,99.90
2023-04-25T22:34:42.927Z,99.90
2023-04-25T22:37:09.886Z,99.90
2023-04-25T22:39:38.198Z,99.90
2023-04-25T22:42:06.297Z,99.90
2023-04-25T22:44:33.878Z,99.90
2023-04-25T22:47:01.551Z,99.90
2023-04-25T22:49:28.696Z,99.90
2023-04-25T22:51:56.837Z,99.90
2023-04-25T22:54:24.296Z,99.90
2023-04-25T22:56:51.121Z,99.90
2023-04-25T22:59:18.384Z,99.90
2023-04-25T23:01:45.160Z,99.90
2023-04-25T23:04:12.185Z,99.90
2023-04-25T23:06:40.682Z,99.90
2023-04-25T23:09:09.789Z,99.90
2023-04-25T23:11:37.260Z,99.90
2023-04-25T23:14:04.258Z,99.90
2023-04-25T23:16:31.486Z,99.90
2023-04-25T23:18:58.561Z,99.90
2023-04-25T23:21:25.569Z,99.90
2023-04-25T23:23:52.419Z,99.90
2023-04-25T23:26:21.338Z,99.90
2023-04-25T23:28:48.119Z,99.90
2023-04-25T23:31:15.209Z,99.90
2023-04-25T23:33:42.258Z,99.90
2023-04-25T23:36:18.104Z,99.90
2023-04-25T23:38:45.244Z,99.90
2023-04-25T23:41:12.792Z,99.90
2023-04-25T23:43:39.788Z,99.90
2023-04-25T23:46:06.803Z,99.90
2023-04-25T23:48:33.838Z,99.90
2023-04-25T23:51:01.024Z,99.90
2023-04-25T23:53:28.005Z,99.90
2023-04-25T23:55:54.975Z,99.90
2023-04-25T23:58:21.991Z,99.90
